createdAt,value
2019-05-11T00:00:08.255Z,1000.76
2019-05-11T00:00:48.640Z,1000.78
2019-05-11T00:01:29.389Z,1000.8
2019-05-11T00:02:09.966Z,1000.81
2019-05-11T00:02:50.399Z,1000.85
2019-05-11T00:03:33.958Z,1000.88
2019-05-11T00:04:20.312Z,1000.87
2019-05-11T00:05:01.460Z,1000.84
2019-05-11T00:05:41.717Z,1000.88
2019-05-11T00:06:22.050Z,1000.84
2019-05-11T00:07:02.512Z,1000.84
2019-05-11T00:07:42.888Z,1000.84
2019-05-11T00:08:23.268Z,1000.85
2019-05-11T00:09:03.681Z,1000.83
2019-05-11T00:09:56.825Z,1000.84
2019-05-11T00:10:24.430Z,1000.86
2019-05-11T00:11:04.865Z,1000.89
2019-05-11T00:11:45.278Z,1000.87
2019-05-11T00:12:25.622Z,1000.88
2019-05-11T00:13:05.970Z,1000.9
2019-05-11T00:13:47.896Z,1000.88
2019-05-11T00:14:28.287Z,1000.87
2019-05-11T00:15:08.640Z,1000.88
2019-05-11T00:15:49.115Z,1000.89
2019-05-11T00:16:30.399Z,1000.86
2019-05-11T00:17:10.712Z,1000.9
2019-05-11T00:17:51.166Z,1000.87
2019-05-11T00:18:31.476Z,1000.85
2019-05-11T00:19:11.947Z,1000.86
2019-05-11T00:24:43.970Z,1000.79
2019-05-11T00:25:24.698Z,1000.8
2019-05-11T00:26:05.118Z,1000.76
2019-05-11T00:26:45.637Z,1000.74
2019-05-11T00:27:26.068Z,1000.74
2019-05-11T00:28:06.494Z,1000.72
2019-05-11T00:28:48.603Z,1000.72
2019-05-11T00:29:29.023Z,1000.76
2019-05-11T00:30:09.417Z,1000.73
2019-05-11T00:30:49.820Z,1000.69
2019-05-11T00:31:30.243Z,1000.73
2019-05-11T00:32:10.655Z,1000.73
2019-05-11T00:32:51.085Z,1000.73
2019-05-11T00:33:31.517Z,1000.76
2019-05-11T00:34:11.940Z,1000.72
2019-05-11T00:34:52.375Z,1000.72
2019-05-11T00:35:32.743Z,1000.73
2019-05-11T00:36:13.206Z,1000.73
2019-05-11T00:36:53.568Z,1000.68
2019-05-11T00:37:34.262Z,1000.67
2019-05-11T00:38:14.380Z,1000.66
2019-05-11T00:38:54.760Z,1000.63
2019-05-11T00:39:35.141Z,1000.62
2019-05-11T00:40:15.581Z,1000.6
2019-05-11T00:40:58.585Z,1000.57
2019-05-11T00:41:39.022Z,1000.57
2019-05-11T00:43:51.682Z,1000.57
2019-05-11T00:44:32.026Z,1000.53
2019-05-11T00:45:12.445Z,1000.55
2019-05-11T00:45:52.862Z,1000.58
2019-05-11T00:46:33.288Z,1000.6
2019-05-11T00:47:13.711Z,1000.6
2019-05-11T00:47:54.132Z,1000.58
2019-05-11T00:48:34.554Z,1000.58
2019-05-11T00:49:14.952Z,1000.55
2019-05-11T00:49:55.351Z,1000.57
2019-05-11T00:50:39.051Z,1000.55
2019-05-11T00:51:16.182Z,1000.56
2019-05-11T00:51:56.607Z,1000.54
2019-05-11T00:52:37.032Z,1000.51
2019-05-11T00:53:17.450Z,1000.51
2019-05-11T00:53:57.873Z,1000.51
2019-05-11T00:54:38.253Z,1000.48
2019-05-11T00:55:18.726Z,1000.44
2019-05-11T00:55:59.104Z,1000.43
2019-05-11T00:56:39.503Z,1000.43
2019-05-11T00:57:19.924Z,1000.4
2019-05-11T00:58:00.314Z,1000.41
2019-05-11T00:58:40.781Z,1000.36
2019-05-11T00:59:22.081Z,1000.38
2019-05-11T01:00:01.589Z,1000.4
2019-05-11T01:00:42.008Z,1000.39
2019-05-11T01:01:22.428Z,1000.39
2019-05-11T01:02:02.835Z,1000.38
2019-05-11T01:02:43.262Z,1000.39
2019-05-11T01:03:23.673Z,1000.41
2019-05-11T01:04:04.119Z,1000.39
2019-05-11T01:04:44.510Z,1000.39
2019-05-11T01:05:24.963Z,1000.4
2019-05-11T01:06:05.362Z,1000.36
2019-05-11T01:06:45.773Z,1000.39
2019-05-11T01:07:26.198Z,1000.36
2019-05-11T01:08:06.616Z,1000.32
2019-05-11T01:08:47.031Z,1000.35
2019-05-11T01:09:27.468Z,1000.31
2019-05-11T01:10:21.714Z,1000.29
2019-05-11T01:10:48.224Z,1000.3
2019-05-11T01:11:28.671Z,1000.29
2019-05-11T01:12:09.094Z,1000.25
2019-05-11T01:12:52.355Z,1000.2
2019-05-11T01:13:32.770Z,1000.17
2019-05-11T01:14:13.177Z,1000.2
2019-05-11T01:14:53.613Z,1000.18
2019-05-11T01:15:34.033Z,1000.2
2019-05-11T01:16:14.583Z,1000.17
2019-05-11T01:16:54.986Z,1000.17
2019-05-11T01:17:35.359Z,1000.18
2019-05-11T01:18:18.026Z,1000.17
2019-05-11T01:18:58.395Z,1000.13
2019-05-11T01:19:38.863Z,1000.11
2019-05-11T01:20:19.191Z,1000.13
2019-05-11T01:20:59.719Z,1000.1
2019-05-11T01:21:40.097Z,1000.14
2019-05-11T01:22:20.449Z,1000.13
2019-05-11T01:23:00.828Z,1000.15
2019-05-11T01:23:43.100Z,1000.13
2019-05-11T01:24:23.579Z,1000.15
2019-05-11T01:25:04.096Z,1000.13
2019-05-11T01:25:44.433Z,1000.15
2019-05-11T01:26:24.859Z,1000.15
2019-05-11T01:27:05.333Z,1000.14
2019-05-11T01:27:45.703Z,1000.19
2019-05-11T01:28:27.049Z,1000.22
2019-05-11T01:29:07.538Z,1000.19
2019-05-11T01:29:47.872Z,1000.17
2019-05-11T01:30:28.924Z,1000.12
2019-05-11T01:31:09.239Z,1000.11
2019-05-11T01:31:49.537Z,1000.09
2019-05-11T01:32:30.308Z,1000.09
2019-05-11T01:33:10.699Z,1000.07
2019-05-11T01:33:51.139Z,1000.04
2019-05-11T01:34:31.536Z,1000.05
2019-05-11T01:35:11.870Z,1000.05
2019-05-11T01:35:54.267Z,1000
2019-05-11T01:36:34.656Z,1000.05
2019-05-11T01:37:15.061Z,1000.04
2019-05-11T01:37:55.449Z,1000.05
2019-05-11T01:38:35.858Z,1000.06
2019-05-11T01:39:16.335Z,1000.1
2019-05-11T01:39:56.739Z,1000.11
2019-05-11T01:40:37.064Z,1000.14
2019-05-11T01:41:17.589Z,1000.1
2019-05-11T01:41:57.850Z,1000.08
2019-05-11T01:42:38.164Z,1000.08
2019-05-11T01:43:18.547Z,1000.07
2019-05-11T01:43:59.092Z,1000.04
2019-05-11T01:44:43.366Z,1000.03
2019-05-11T01:45:23.753Z,999.99
2019-05-11T01:46:04.129Z,999.93
2019-05-11T01:46:44.526Z,999.95
2019-05-11T01:47:24.929Z,999.95
2019-05-11T01:48:05.357Z,999.94
2019-05-11T01:48:45.768Z,999.92
2019-05-11T01:49:26.106Z,999.89
2019-05-11T01:50:07.064Z,999.89
2019-05-11T01:50:47.483Z,999.88
2019-05-11T01:51:27.960Z,999.87
2019-05-11T01:52:08.207Z,999.94
2019-05-11T01:52:48.614Z,999.92
2019-05-11T01:53:32.728Z,999.94
2019-05-11T01:54:14.573Z,999.93
2019-05-11T01:54:54.941Z,999.96
2019-05-11T01:55:35.388Z,999.97
2019-05-11T01:56:15.785Z,1000.02
2019-05-11T01:56:56.254Z,999.98
2019-05-11T01:57:37.355Z,1000.03
2019-05-11T01:58:17.841Z,1000.06
2019-05-11T01:59:03.285Z,1000.08
2019-05-11T01:59:51.354Z,1000.04
2019-05-11T02:00:32.967Z,1000.08
2019-05-11T02:01:12.856Z,1000.08
2019-05-11T02:01:54.947Z,1000.09
2019-05-11T02:02:35.337Z,1000.09
2019-05-11T02:03:17.961Z,1000.12
2019-05-11T02:03:59.957Z,1000.13
2019-05-11T02:04:40.372Z,1000.12
2019-05-11T02:05:20.905Z,1000.12
2019-05-11T02:06:01.826Z,1000.11
2019-05-11T02:06:42.200Z,1000.09
2019-05-11T02:07:22.601Z,1000.1
2019-05-11T02:08:03.146Z,1000.1
2019-05-11T02:08:44.059Z,1000.09
2019-05-11T02:09:24.661Z,1000.12
2019-05-11T02:10:21.579Z,1000.12
2019-05-11T02:11:14.806Z,1000.12
2019-05-11T02:11:50.149Z,1000.14
2019-05-11T02:12:32.351Z,1000.11
2019-05-11T02:13:12.828Z,1000.1
2019-05-11T02:13:53.607Z,1000.08
2019-05-11T02:14:34.035Z,1000.08
2019-05-11T02:15:14.859Z,1000.08
2019-05-11T02:15:55.262Z,1000.05
2019-05-11T02:16:36.317Z,1000.03
2019-05-11T02:17:16.679Z,1000.02
2019-05-11T02:17:57.220Z,1000.01
2019-05-11T02:18:38.705Z,999.99
2019-05-11T02:19:18.998Z,999.96
2019-05-11T02:19:59.450Z,999.95
2019-05-11T02:20:39.813Z,999.97
2019-05-11T02:21:20.219Z,999.96
2019-05-11T02:22:04.427Z,999.98
2019-05-11T02:22:44.999Z,999.95
2019-05-11T02:23:25.390Z,999.96
2019-05-11T02:24:05.790Z,999.97
2019-05-11T02:24:46.193Z,999.94
2019-05-11T02:25:26.542Z,1000.02
2019-05-11T02:26:06.942Z,1000
2019-05-11T02:26:47.391Z,999.99
2019-05-11T02:27:27.709Z,999.98
2019-05-11T02:28:08.228Z,1000
2019-05-11T02:28:50.453Z,1000.02
2019-05-11T02:29:30.879Z,1000
2019-05-11T02:30:11.265Z,999.97
2019-05-11T02:30:53.390Z,1000
2019-05-11T02:32:14.082Z,1000
2019-05-11T02:32:54.643Z,1000.04
2019-05-11T02:33:34.959Z,1000.02
2019-05-11T02:34:15.391Z,999.98
2019-05-11T02:34:55.791Z,1000.02
2019-05-11T02:35:40.210Z,1000.02
2019-05-11T02:36:20.483Z,999.98
2019-05-11T02:37:00.874Z,1000.01
2019-05-11T02:37:41.297Z,999.99
2019-05-11T02:38:21.628Z,1000.02
2019-05-11T02:39:02.053Z,999.99
2019-05-11T02:39:42.684Z,999.99
2019-05-11T02:40:22.934Z,999.98
2019-05-11T02:41:03.326Z,999.96
2019-05-11T02:41:45.315Z,999.93
2019-05-11T02:42:25.834Z,999.94
2019-05-11T02:43:06.065Z,999.91
2019-05-11T02:43:46.468Z,999.87
2019-05-11T02:44:26.849Z,999.84
2019-05-11T02:45:07.482Z,999.87
2019-05-11T02:45:47.785Z,999.83
2019-05-11T02:46:28.186Z,999.78
2019-05-11T02:47:08.555Z,999.8
2019-05-11T02:47:48.953Z,999.8
2019-05-11T02:48:29.297Z,999.79
2019-05-11T02:49:09.682Z,999.79
2019-05-11T02:49:50.103Z,999.79
2019-05-11T02:50:34.102Z,999.81
2019-05-11T02:51:14.521Z,999.79
2019-05-11T02:51:54.919Z,999.81
2019-05-11T02:52:35.321Z,999.79
2019-05-11T02:53:15.714Z,999.82
2019-05-11T02:53:56.203Z,999.79
2019-05-11T02:54:36.587Z,999.77
2019-05-11T02:55:17.260Z,999.82
2019-05-11T02:55:57.608Z,999.81
2019-05-11T02:56:37.984Z,999.82
2019-05-11T02:57:18.376Z,999.77
2019-05-11T02:57:58.771Z,999.79
2019-05-11T02:58:39.281Z,999.79
2019-05-11T02:59:19.813Z,999.82
2019-05-11T03:00:00.109Z,999.79
2019-05-11T03:00:40.547Z,999.82
2019-05-11T03:01:20.873Z,999.84
2019-05-11T03:02:01.314Z,999.84
2019-05-11T03:02:42.661Z,999.84
2019-05-11T03:03:22.872Z,999.86
2019-05-11T03:04:03.273Z,999.86
2019-05-11T03:04:43.697Z,999.85
2019-05-11T03:05:24.105Z,999.87
2019-05-11T03:06:04.526Z,999.84
2019-05-11T03:06:44.945Z,999.83
2019-05-11T03:07:25.484Z,999.83
2019-05-11T03:08:07.542Z,999.86
2019-05-11T03:08:48.464Z,999.81
2019-05-11T03:09:28.825Z,999.82
2019-05-11T03:10:09.196Z,999.83
2019-05-11T03:10:49.588Z,999.83
2019-05-11T03:11:29.969Z,999.82
2019-05-11T03:12:11.192Z,999.83
2019-05-11T03:12:51.557Z,999.87
2019-05-11T03:13:33.916Z,999.87
2019-05-11T03:14:14.299Z,999.85
2019-05-11T03:14:54.785Z,999.88
2019-05-11T03:15:35.163Z,999.84
2019-05-11T03:16:15.533Z,999.86
2019-05-11T03:16:55.927Z,999.82
2019-05-11T03:17:36.323Z,999.83
2019-05-11T03:18:16.697Z,999.81
2019-05-11T03:18:57.075Z,999.8
2019-05-11T03:19:37.770Z,999.75
2019-05-11T03:20:18.177Z,999.77
2019-05-11T03:20:58.518Z,999.74
2019-05-11T03:21:38.894Z,999.71
2019-05-11T03:22:19.310Z,999.68
2019-05-11T03:22:59.667Z,999.68
2019-05-11T03:23:40.145Z,999.7
2019-05-11T03:24:23.977Z,999.69
2019-05-11T03:25:00.885Z,999.72
2019-05-11T03:26:21.634Z,999.75
2019-05-11T03:27:02.061Z,999.76
2019-05-11T03:27:42.508Z,999.76
2019-05-11T03:28:22.893Z,999.79
2019-05-11T03:29:03.348Z,999.8
2019-05-11T03:29:43.748Z,999.82
2019-05-11T03:30:24.165Z,999.8
2019-05-11T03:31:04.583Z,999.81
2019-05-11T03:31:44.985Z,999.81
2019-05-11T03:32:25.421Z,999.82
2019-05-11T03:33:05.942Z,999.79
2019-05-11T03:33:46.257Z,999.78
2019-05-11T03:34:26.677Z,999.72
2019-05-11T03:35:07.077Z,999.79
2019-05-11T03:35:47.687Z,999.75
2019-05-11T03:36:28.052Z,999.73
2019-05-11T03:37:08.458Z,999.72
2019-05-11T03:37:48.986Z,999.75
2019-05-11T03:38:29.260Z,999.74
2019-05-11T03:39:09.622Z,999.77
2019-05-11T03:39:50.007Z,999.77
2019-05-11T03:40:30.427Z,999.8
2019-05-11T03:41:10.851Z,999.77
2019-05-11T03:41:51.253Z,999.79
2019-05-11T03:42:31.677Z,999.8
2019-05-11T03:43:12.086Z,999.75
2019-05-11T03:43:52.570Z,999.76
2019-05-11T03:44:32.931Z,999.75
2019-05-11T03:45:13.425Z,999.75
2019-05-11T03:45:53.701Z,999.73
2019-05-11T03:46:34.104Z,999.74
2019-05-11T03:47:14.486Z,999.72
2019-05-11T03:47:54.880Z,999.73
2019-05-11T03:48:35.265Z,999.67
2019-05-11T03:49:16.815Z,999.72
2019-05-11T03:49:57.056Z,999.7
2019-05-11T03:50:37.459Z,999.69
2019-05-11T03:51:17.829Z,999.67
2019-05-11T03:51:58.221Z,999.69
2019-05-11T03:57:52.314Z,999.59
2019-05-11T03:58:33.638Z,999.6
2019-05-11T03:59:14.018Z,999.6
2019-05-11T03:59:54.435Z,999.63
2019-05-11T04:00:36.468Z,999.6
2019-05-11T04:01:16.840Z,999.58
2019-05-11T04:01:57.227Z,999.62
2019-05-11T04:02:37.668Z,999.61
2019-05-11T04:03:18.029Z,999.65
2019-05-11T04:03:58.502Z,999.63
2019-05-11T04:04:38.853Z,999.62
2019-05-11T04:05:19.200Z,999.66
2019-05-11T04:05:59.584Z,999.65
2019-05-11T04:06:40.005Z,999.64
2019-05-11T04:07:22.347Z,999.66
2019-05-11T04:08:06.149Z,999.67
2019-05-11T04:08:46.545Z,999.67
2019-05-11T04:09:26.934Z,999.65
2019-05-11T04:10:07.443Z,999.66
2019-05-11T04:10:47.853Z,999.7
2019-05-11T04:11:28.273Z,999.73
2019-05-11T04:12:08.651Z,999.72
2019-05-11T04:12:49.119Z,999.7
2019-05-11T04:13:31.288Z,999.75
2019-05-11T04:14:11.675Z,999.71
2019-05-11T04:14:52.087Z,999.72
2019-05-11T04:15:32.489Z,999.72
2019-05-11T04:16:12.917Z,999.72
2019-05-11T04:16:53.243Z,999.7
2019-05-11T04:17:33.756Z,999.7
2019-05-11T04:18:14.010Z,999.7
2019-05-11T04:18:54.766Z,999.7
2019-05-11T04:19:36.845Z,999.72
2019-05-11T04:20:17.247Z,999.7
2019-05-11T04:20:57.648Z,999.7
2019-05-11T04:21:41.642Z,999.67
2019-05-11T04:22:22.114Z,999.68
2019-05-11T04:23:02.477Z,999.68
2019-05-11T04:23:44.896Z,999.65
2019-05-11T04:24:26.788Z,999.68
2019-05-11T04:25:07.246Z,999.64
2019-05-11T04:25:47.601Z,999.69
2019-05-11T04:26:29.971Z,999.62
2019-05-11T04:27:12.963Z,999.65
2019-05-11T04:27:53.584Z,999.67
2019-05-11T04:28:33.783Z,999.64
2019-05-11T05:16:44.173Z,999.9
2019-05-11T05:17:23.097Z,999.93
2019-05-11T05:18:06.218Z,999.91
2019-05-11T05:18:46.913Z,999.94
2019-05-11T05:19:30.748Z,999.91
2019-05-11T05:20:11.389Z,999.89
2019-05-11T05:20:52.290Z,999.89
2019-05-11T05:21:33.799Z,999.91
2019-05-11T05:23:58.207Z,999.92
2019-05-11T05:24:37.365Z,999.91
2019-05-11T05:25:18.626Z,999.93
2019-05-11T05:25:59.662Z,999.92
2019-05-11T05:26:44.304Z,999.93
2019-05-11T05:27:24.296Z,999.94
2019-05-11T05:28:05.581Z,999.92
2019-05-11T05:28:45.933Z,999.92
2019-05-11T05:29:25.889Z,999.91
2019-05-11T05:30:07.251Z,999.91
2019-05-11T05:30:47.881Z,999.97
2019-05-11T05:31:28.809Z,999.91
2019-05-11T05:32:09.257Z,999.91
2019-05-11T05:32:53.331Z,999.93
2019-05-11T05:33:33.988Z,999.92
2019-05-11T05:34:14.855Z,999.93
2019-05-11T05:34:57.591Z,999.92
2019-05-11T05:35:43.681Z,999.89
2019-05-11T05:36:28.961Z,999.97
2019-05-11T05:37:09.392Z,999.93
2019-05-11T05:37:50.501Z,999.93
2019-05-11T05:38:34.438Z,999.93
2019-05-11T05:39:14.562Z,999.91
2019-05-11T05:39:55.310Z,999.92
2019-05-11T05:48:34.627Z,1000.04
2019-05-11T05:49:16.225Z,1000.04
2019-05-11T05:49:56.549Z,1000.03
2019-05-11T05:50:36.972Z,1000.08
2019-05-11T05:51:17.599Z,1000.03
2019-05-11T05:52:03.042Z,1000.04
2019-05-11T05:52:43.384Z,1000.07
2019-05-11T05:53:23.768Z,1000.05
2019-05-11T05:54:04.158Z,1000.02
2019-05-11T05:54:44.596Z,1000.06
2019-05-11T05:55:25.002Z,1000.03
2019-05-11T05:56:05.398Z,1000.04
2019-05-11T05:56:46.113Z,1000.05
2019-05-11T05:57:26.511Z,1000.05
2019-05-11T05:58:07.255Z,1000.08
2019-05-11T05:58:47.833Z,1000.02
2019-05-11T06:00:09.035Z,1000.03
2019-05-11T06:00:49.227Z,1000.06
2019-05-11T06:01:29.656Z,1000.05
2019-05-11T06:02:14.302Z,1000.04
2019-05-11T06:02:56.293Z,1000.05
2019-05-11T06:03:36.764Z,1000.06
2019-05-11T06:04:17.067Z,1000.05
2019-05-11T06:04:58.301Z,1000.07
2019-05-11T06:06:19.076Z,1000.06
2019-05-11T06:06:59.546Z,1000.05
2019-05-11T06:07:41.741Z,1000.09
2019-05-11T06:08:26.102Z,1000.08
2019-05-11T06:09:07.124Z,1000.1
2019-05-11T06:09:47.514Z,1000.11
2019-05-11T06:10:28.190Z,1000.07
2019-05-11T06:11:10.274Z,1000.04
2019-05-11T06:11:50.649Z,1000.07
2019-05-11T06:12:31.123Z,1000.07
2019-05-11T06:13:11.509Z,1000.1
2019-05-11T06:13:51.910Z,1000.07
2019-05-11T06:14:32.488Z,1000.05
2019-05-11T06:15:13.829Z,1000.1
2019-05-11T06:15:54.317Z,1000.09
2019-05-11T06:16:34.622Z,1000.08
2019-05-11T06:17:19.110Z,1000.13
2019-05-11T06:18:00.506Z,1000.1
2019-05-11T06:18:39.931Z,1000.13
2019-05-11T06:19:20.387Z,1000.12
2019-05-11T06:20:00.715Z,1000.11
2019-05-11T06:20:41.096Z,1000.09
2019-05-11T06:21:21.485Z,1000.08
2019-05-11T06:22:01.910Z,1000.08
2019-05-11T06:22:42.223Z,1000.11
2019-05-11T06:23:22.672Z,1000.1
2019-05-11T06:24:06.450Z,1000.16
2019-05-11T06:24:43.624Z,1000.14
2019-05-11T06:25:24.174Z,1000.11
2019-05-11T06:26:04.454Z,1000.12
2019-05-11T06:26:47.531Z,1000.14
2019-05-11T06:27:27.912Z,1000.12
2019-05-11T06:28:09.312Z,1000.11
2019-05-11T06:28:50.623Z,1000.13
2019-05-11T06:29:32.847Z,1000.13
2019-05-11T06:30:13.278Z,1000.11
2019-05-11T06:30:56.739Z,1000.19
2019-05-11T06:31:37.935Z,1000.21
2019-05-11T06:32:18.335Z,1000.21
2019-05-11T06:33:01.200Z,1000.19
2019-05-11T06:33:43.542Z,1000.25
2019-05-11T06:34:25.920Z,1000.26
2019-05-11T06:38:58.179Z,1000.35
2019-05-11T06:40:55.979Z,1000.34
2019-05-11T06:41:37.082Z,1000.36
2019-05-11T06:42:17.239Z,1000.36
2019-05-11T06:42:57.574Z,1000.36
2019-05-11T06:43:37.928Z,1000.38
2019-05-11T06:44:18.375Z,1000.32
2019-05-11T06:45:00.672Z,1000.4
2019-05-11T06:45:41.084Z,1000.4
2019-05-11T06:46:23.460Z,1000.41
2019-05-11T06:47:03.728Z,1000.39
2019-05-11T06:47:44.218Z,1000.41
2019-05-11T06:48:24.516Z,1000.42
2019-05-11T06:49:05.888Z,1000.42
2019-05-11T06:49:46.483Z,1000.45
2019-05-11T06:50:26.771Z,1000.4
2019-05-11T06:51:07.408Z,1000.45
2019-05-11T06:51:48.284Z,1000.46
2019-05-11T06:52:28.921Z,1000.45
2019-05-11T06:53:09.293Z,1000.46
2019-05-11T06:53:49.750Z,1000.46
2019-05-11T06:54:30.134Z,1000.48
2019-05-11T06:55:10.480Z,1000.46
2019-05-11T06:55:50.888Z,1000.48
2019-05-11T06:56:31.204Z,1000.44
2019-05-11T06:57:12.621Z,1000.43
2019-05-11T06:57:54.168Z,1000.43
2019-05-11T06:58:35.808Z,1000.41
2019-05-11T06:59:16.429Z,1000.45
2019-05-11T07:00:02.482Z,1000.45
2019-05-11T07:00:43.009Z,1000.43
2019-05-11T07:01:23.408Z,1000.43
2019-05-11T07:02:08.511Z,1000.43
2019-05-11T07:02:49.698Z,1000.38
2019-05-11T07:03:32.215Z,1000.38
2019-05-11T07:04:14.478Z,1000.4
2019-05-11T07:04:54.955Z,1000.44
2019-05-11T07:05:35.292Z,1000.41
2019-05-11T07:06:15.733Z,1000.42
2019-05-11T07:06:57.087Z,1000.42
2019-05-11T07:07:46.796Z,1000.42
2019-05-11T07:08:17.918Z,1000.41
2019-05-11T07:08:58.584Z,1000.4
2019-05-11T07:09:43.311Z,1000.37
2019-05-11T07:10:23.660Z,1000.4
2019-05-11T07:11:45.136Z,1000.37
2019-05-11T07:12:27.575Z,1000.42
2019-05-11T07:13:05.959Z,1000.41
2019-05-11T07:13:46.339Z,1000.43
2019-05-11T07:14:27.600Z,1000.42
2019-05-11T07:15:10.103Z,1000.44
2019-05-11T07:15:51.582Z,1000.41
2019-05-11T07:16:31.769Z,1000.42
2019-05-11T07:17:13.807Z,1000.44
2019-05-11T07:17:54.205Z,1000.48
2019-05-11T07:18:34.540Z,1000.44
2019-05-11T07:19:15.069Z,1000.43
2019-05-11T07:19:56.448Z,1000.46
2019-05-11T07:20:49.332Z,1000.53
2019-05-11T07:21:17.448Z,1000.48
2019-05-11T07:21:57.624Z,1000.49
2019-05-11T07:22:38.682Z,1000.5
2019-05-11T07:23:22.636Z,1000.51
2019-05-11T07:30:16.490Z,1000.54
2019-05-11T07:30:57.981Z,1000.56
2019-05-11T07:31:39.237Z,1000.54
2019-05-11T07:32:24.925Z,1000.53
2019-05-11T07:33:01.233Z,1000.57
2019-05-11T07:33:42.966Z,1000.57
2019-05-11T07:34:27.755Z,1000.53
2019-05-11T07:35:08.375Z,1000.55
2019-05-11T07:35:47.808Z,1000.55
2019-05-11T07:37:10.710Z,1000.55
2019-05-11T07:37:51.066Z,1000.55
2019-05-11T07:38:31.711Z,1000.61
2019-05-11T07:39:12.889Z,1000.59
2019-05-11T07:39:57.942Z,1000.63
2019-05-11T07:40:38.531Z,1000.64
2019-05-11T07:41:20.785Z,1000.66
2019-05-11T07:42:03.056Z,1000.65
2019-05-11T07:42:43.632Z,1000.67
2019-05-11T07:43:24.077Z,1000.68
2019-05-11T07:44:04.858Z,1000.74
2019-05-11T07:44:47.835Z,1000.76
2019-05-11T07:45:28.290Z,1000.74
2019-05-11T07:46:08.027Z,1000.79
2019-05-11T07:46:52.207Z,1000.75
2019-05-11T07:47:34.380Z,1000.78
2019-05-11T07:48:14.754Z,1000.81
2019-05-11T07:48:58.403Z,1000.81
2019-05-11T07:49:38.309Z,1000.84
2019-05-11T07:50:19.628Z,1000.85
2019-05-11T07:51:00.048Z,1000.9
2019-05-11T07:51:40.441Z,1000.9
2019-05-11T07:52:21.767Z,1000.89
2019-05-11T07:53:02.189Z,1000.9
2019-05-11T07:53:44.487Z,1000.9
2019-05-11T07:55:10.323Z,1000.92
2019-05-11T07:55:50.695Z,1000.97
2019-05-11T07:56:35.074Z,1001
2019-05-11T07:57:18.410Z,1000.94
2019-05-11T07:57:58.540Z,1000.99
2019-05-11T07:58:39.692Z,1001.01
2019-05-11T07:59:21.141Z,1001.02
2019-05-11T08:00:03.829Z,1001.04
2019-05-11T08:00:45.857Z,1001.05
2019-05-11T08:01:28.110Z,1001.05
2019-05-11T08:07:37.744Z,1001.17
2019-05-11T08:08:20.628Z,1001.16
2019-05-11T08:09:00.992Z,1001.24
2019-05-11T08:09:41.454Z,1001.23
2019-05-11T08:10:21.850Z,1001.26
2019-05-11T08:11:02.215Z,1001.28
2019-05-11T08:11:44.377Z,1001.27
2019-05-11T08:12:24.572Z,1001.3
2019-05-11T08:13:04.978Z,1001.25
2019-05-11T08:13:47.398Z,1001.32
2019-05-11T08:14:28.725Z,1001.26
2019-05-11T08:15:13.491Z,1001.31
2019-05-11T08:17:24.213Z,1001.37
2019-05-11T08:18:04.471Z,1001.33
2019-05-11T08:18:44.889Z,1001.36
2019-05-11T08:19:27.975Z,1001.36
2019-05-11T08:20:07.819Z,1001.36
2019-05-11T08:20:47.841Z,1001.4
2019-05-11T08:21:30.103Z,1001.39
2019-05-11T08:22:10.529Z,1001.38
2019-05-11T08:22:50.919Z,1001.37
2019-05-11T08:23:34.333Z,1001.4
2019-05-11T08:24:14.720Z,1001.43
2019-05-11T08:24:58.542Z,1001.42
2019-05-11T08:25:37.918Z,1001.46
2019-05-11T08:26:19.113Z,1001.42
2019-05-11T08:26:58.882Z,1001.41
2019-05-11T08:27:39.235Z,1001.43
2019-05-11T08:28:19.605Z,1001.46
2019-05-11T08:29:00.410Z,1001.45
2019-05-11T08:29:42.378Z,1001.44
2019-05-11T08:30:22.780Z,1001.48
2019-05-11T08:31:05.225Z,1001.48
2019-05-11T08:31:45.687Z,1001.52
2019-05-11T08:32:28.358Z,1001.48
2019-05-11T08:33:10.604Z,1001.46
2019-05-11T08:33:52.961Z,1001.48
2019-05-11T08:34:33.344Z,1001.47
2019-05-11T08:35:13.724Z,1001.52
2019-05-11T08:35:54.523Z,1001.52
2019-05-11T08:36:37.787Z,1001.5
2019-05-11T08:37:18.981Z,1001.51
2019-05-11T08:37:59.570Z,1001.53
2019-05-11T08:38:39.937Z,1001.54
2019-05-11T08:39:20.343Z,1001.53
2019-05-11T08:40:07.818Z,1001.56
2019-05-11T08:40:50.015Z,1001.58
2019-05-11T08:41:30.486Z,1001.57
2019-05-11T08:42:11.204Z,1001.57
2019-05-11T08:42:51.207Z,1001.62
2019-05-11T08:43:35.247Z,1001.59
2019-05-11T08:44:17.927Z,1001.62
2019-05-11T08:45:11.571Z,1001.62
2019-05-11T08:45:36.383Z,1001.62
2019-05-11T08:46:18.490Z,1001.62
2019-05-11T08:46:58.273Z,1001.66
2019-05-11T08:47:42.178Z,1001.66
2019-05-11T08:49:08.605Z,1001.67
2019-05-11T08:49:48.999Z,1001.67
2019-05-11T08:50:29.393Z,1001.73
2019-05-11T08:51:10.901Z,1001.73
2019-05-11T08:51:51.223Z,1001.69
2019-05-11T08:54:23.569Z,1001.73
2019-05-11T08:55:04.756Z,1001.72
2019-05-11T08:55:48.507Z,1001.75
2019-05-11T08:56:28.857Z,1001.78
2019-05-11T08:57:12.792Z,1001.78
2019-05-11T08:57:53.137Z,1001.8
2019-05-11T08:58:37.969Z,1001.81
2019-05-11T08:59:18.605Z,1001.8
2019-05-11T09:01:31.885Z,1001.82
2019-05-11T09:02:14.617Z,1001.84
2019-05-11T09:02:55.007Z,1001.86
2019-05-11T09:03:38.451Z,1001.87
2019-05-11T09:04:18.203Z,1001.92
2019-05-11T09:04:58.871Z,1001.92
2019-05-11T09:05:38.386Z,1001.9
2019-05-11T09:06:19.361Z,1001.93
2019-05-11T09:07:01.334Z,1001.93
2019-05-11T09:07:41.927Z,1001.94
2019-05-11T09:08:22.712Z,1001.97
2019-05-11T09:09:04.233Z,1001.94
2019-05-11T09:09:48.344Z,1001.98
2019-05-11T09:11:08.503Z,1002.04
2019-05-11T09:11:48.284Z,1002.01
2019-05-11T09:12:28.961Z,1002.04
2019-05-11T09:13:09.133Z,1002.01
2019-05-11T09:13:49.547Z,1002.05
2019-05-11T09:14:29.905Z,1002.06
2019-05-11T09:15:10.427Z,1002.08
2019-05-11T09:15:51.398Z,1002.12
2019-05-11T09:16:31.761Z,1002.11
2019-05-11T09:17:12.451Z,1002.1
2019-05-11T09:17:53.117Z,1002.09
2019-05-11T09:18:33.536Z,1002.17
2019-05-11T09:19:54.333Z,1002.19
2019-05-11T09:20:37.771Z,1002.2
2019-05-11T09:21:18.968Z,1002.19
2019-05-11T09:22:42.582Z,1002.21
2019-05-11T09:23:33.310Z,1002.23
2019-05-11T09:24:03.329Z,1002.27
2019-05-11T09:24:47.510Z,1002.25
2019-05-11T09:25:27.549Z,1002.26
2019-05-11T09:26:06.552Z,1002.29
2019-05-11T09:28:24.458Z,1002.33
2019-05-11T09:29:04.791Z,1002.31
2019-05-11T09:29:45.326Z,1002.36
2019-05-11T09:30:25.899Z,1002.33
2019-05-11T09:31:08.487Z,1002.35
2019-05-11T09:31:48.663Z,1002.35
2019-05-11T09:32:28.567Z,1002.38
2019-05-11T09:33:08.731Z,1002.37
2019-05-11T09:33:48.842Z,1002.38
2019-05-11T09:34:29.215Z,1002.39
2019-05-11T09:35:09.657Z,1002.39
2019-05-11T09:35:53.234Z,1002.4
2019-05-11T09:36:30.692Z,1002.4
2019-05-11T09:37:11.097Z,1002.39
2019-05-11T09:37:51.510Z,1002.4
2019-05-11T09:38:31.922Z,1002.43
2019-05-11T09:39:12.286Z,1002.42
2019-05-11T09:39:53.670Z,1002.44
2019-05-11T09:40:34.920Z,1002.44
2019-05-11T09:41:17.998Z,1002.43
2019-05-11T09:41:57.749Z,1002.47
2019-05-11T09:42:38.804Z,1002.47
2019-05-11T09:43:18.568Z,1002.49
2019-05-11T09:43:58.950Z,1002.49
2019-05-11T09:45:23.693Z,1002.52
2019-05-11T09:46:04.080Z,1002.54
2019-05-11T09:46:44.626Z,1002.56
2019-05-11T09:47:24.867Z,1002.61
2019-05-11T09:48:08.557Z,1002.59
2019-05-11T09:48:48.301Z,1002.64
2019-05-11T09:49:42.927Z,1002.61
2019-05-11T09:50:09.187Z,1002.67
2019-05-11T09:50:49.555Z,1002.67
2019-05-11T09:51:29.954Z,1002.67
2019-05-11T09:52:15.064Z,1002.66
2019-05-11T09:53:38.802Z,1002.7
2019-05-11T09:54:18.384Z,1002.78
2019-05-11T09:54:59.165Z,1002.78
2019-05-11T09:55:48.078Z,1002.78
2019-05-11T09:56:28.803Z,1002.76
2019-05-11T09:57:09.303Z,1002.77
2019-05-11T09:57:49.603Z,1002.78
2019-05-11T09:58:31.998Z,1002.79
2019-05-11T09:59:12.296Z,1002.82
2019-05-11T09:59:52.702Z,1002.81
2019-05-11T10:00:35.582Z,1002.86
2019-05-11T10:01:18.207Z,1002.83
2019-05-11T10:01:59.023Z,1002.81
2019-05-11T10:02:38.884Z,1002.82
2019-05-11T10:03:19.147Z,1002.87